Time;durP1;ratioP1;P1;durP2;ratioP2;P2;SDS_P1;SDS_P2;PMS_P1;PMS_P2;Temp;Humidity;BMP_temperature;BMP_pressure;BME280_temperature;BME280_humidity;BME280_pressure;Samples;Min_cycle;Max_cycle;Signal;HPM_P1;HPM_P2
2021/07/27 00:02:36;;;;;;;5.85;3.38;;;;;;;19.11;94.03;100810.16;6249124;28;20080;-81
2021/07/27 00:05:37;;;;;;;4.15;2.90;;;;;;;19.14;94.78;100812.56;6248923;28;20052;-81
2021/07/27 00:08:39;;;;;;;3.28;2.72;;;;;;;19.14;95.21;100813.41;6257876;28;20072;-81
2021/07/27 00:11:42;;;;;;;4.82;2.67;;;;;;;19.13;95.07;100814.41;6258892;28;20056;-82
2021/07/27 00:14:43;;;;;;;5.03;3.00;;;;;;;19.08;96.62;100805.97;6262412;28;20045;-81
2021/07/27 00:17:44;;;;;;;5.55;3.40;;;;;;;19.05;96.46;100811.56;6259472;28;20077;-81
2021/07/27 00:20:46;;;;;;;5.88;3.17;;;;;;;19.09;95.75;100806.81;6256966;28;20092;-82
2021/07/27 00:23:47;;;;;;;3.38;3.00;;;;;;;19.08;95.84;100813.97;6261745;28;20029;-81
2021/07/27 00:26:50;;;;;;;5.85;3.17;;;;;;;19.02;96.81;100803.84;6262584;28;20053;-81
2021/07/27 00:29:51;;;;;;;4.60;3.60;;;;;;;18.99;96.10;100809.44;6260965;28;20053;-81
2021/07/27 00:32:52;;;;;;;4.25;3.53;;;;;;;18.98;96.17;100802.41;6258057;28;20056;-81
2021/07/27 00:35:54;;;;;;;10.88;4.03;;;;;;;18.99;96.47;100810.28;6261081;28;20045;-82
2021/07/27 00:38:56;;;;;;;5.43;3.85;;;;;;;18.98;96.34;100807.75;6258897;28;20045;-82
2021/07/27 00:41:58;;;;;;;5.30;3.97;;;;;;;18.98;96.66;100813.06;6257966;28;20049;-82
2021/07/27 00:45:00;;;;;;;6.88;3.80;;;;;;;18.95;96.58;100813.34;6261508;28;20412;-81
2021/07/27 00:48:01;;;;;;;4.90;3.58;;;;;;;18.94;97.30;100808.97;6257095;28;20053;-81
2021/07/27 00:51:03;;;;;;;6.55;3.63;;;;;;;18.93;97.72;100805.47;6265858;28;20060;-82
2021/07/27 00:54:06;;;;;;;6.68;3.90;;;;;;;18.91;97.82;100812.78;6273545;28;20052;-81
2021/07/27 00:57:09;;;;;;;5.60;3.53;;;;;;;18.89;97.87;100812.03;6273674;28;20049;-81
2021/07/27 01:00:12;;;;;;;5.80;3.70;;;;;;;18.87;98.34;100808.69;6259307;28;20056;-81
2021/07/27 01:03:15;;;;;;;6.65;3.88;;;;;;;18.78;99.27;100804.16;6263425;28;20049;-81
2021/07/27 01:06:16;;;;;;;8.20;3.85;;;;;;;18.79;99.45;100808.50;6262005;28;20405;-82
2021/07/27 01:09:18;;;;;;;7.30;3.47;;;;;;;18.77;100.00;100809.63;6257547;28;20519;-82
2021/07/27 01:12:21;;;;;;;5.18;3.88;;;;;;;18.71;100.00;100817.19;6254344;28;20064;-81
2021/07/27 01:15:23;;;;;;;5.78;3.67;;;;;;;18.63;100.00;100811.63;6254457;28;20045;-81
2021/07/27 01:18:28;;;;;;;5.57;3.58;;;;;;;18.58;100.00;100810.34;6254555;28;20056;-81
2021/07/27 01:38:17;;;;;;;5.63;3.80;;;;;;;18.58;100.00;100815.69;6240781;28;20154;-81
2021/07/27 01:44:44;;;;;;;5.57;4.22;;;;;;;18.60;100.00;100803.06;6258346;28;20272;-81
2021/07/27 01:47:45;;;;;;;11.20;4.90;;;;;;;18.59;100.00;100804.88;6260362;28;20071;-82
2021/07/27 01:50:46;;;;;;;8.10;4.35;;;;;;;18.56;100.00;100804.31;6259868;28;20060;-82
2021/07/27 01:53:49;;;;;;;6.43;4.75;;;;;;;18.50;100.00;100806.50;6259194;28;20430;-82
2021/07/27 01:56:52;;;;;;;5.45;3.53;;;;;;;18.48;100.00;100810.28;6258673;28;20060;-82
2021/07/27 02:00:08;;;;;;;5.53;4.15;;;;;;;18.44;100.00;100809.72;6258645;28;20060;-82
2021/07/27 02:03:09;;;;;;;9.65;4.28;;;;;;;18.40;100.00;100815.44;6259473;28;20052;-82
2021/07/27 02:06:10;;;;;;;5.93;4.20;;;;;;;18.34;100.00;100808.78;6258427;28;20041;-81
2021/07/27 02:09:14;;;;;;;7.75;4.10;;;;;;;18.34;100.00;100816.78;6259602;28;20049;-81
2021/07/27 02:12:19;;;;;;;7.32;4.15;;;;;;;18.33;100.00;100809.75;6259944;28;20050;-81
2021/07/27 02:15:22;;;;;;;5.93;4.03;;;;;;;18.27;100.00;100820.94;6259957;28;20051;-82
2021/07/27 02:18:23;;;;;;;5.72;4.15;;;;;;;18.25;100.00;100812.22;6259453;28;20053;-82
2021/07/27 02:21:25;;;;;;;7.90;4.20;;;;;;;18.23;100.00;100812.38;6259134;28;20053;-82
2021/07/27 02:24:26;;;;;;;8.05;4.63;;;;;;;18.17;100.00;100807.56;6259095;28;20053;-82
2021/07/27 02:27:29;;;;;;;6.38;4.45;;;;;;;18.13;100.00;100814.13;6258899;28;20046;-82
2021/07/27 02:30:33;;;;;;;5.75;3.80;;;;;;;18.13;100.00;100822.09;6258720;28;20057;-82
2021/07/27 02:33:37;;;;;;;10.52;4.40;;;;;;;18.08;100.00;100826.97;6259171;28;20056;-82
2021/07/27 02:36:38;;;;;;;6.55;4.38;;;;;;;18.02;100.00;100827.47;6257187;28;20084;-81
2021/07/27 02:39:39;;;;;;;5.43;4.22;;;;;;;17.97;100.00;100834.97;6257785;28;20045;-82
2021/07/27 02:42:42;;;;;;;6.57;4.15;;;;;;;17.96;100.00;100836.78;6257808;28;20444;-82
2021/07/27 02:45:43;;;;;;;8.23;5.05;;;;;;;17.96;100.00;100834.13;6258102;28;20045;-81
2021/07/27 02:48:45;;;;;;;5.45;4.28;;;;;;;17.98;100.00;100836.66;6257794;28;20049;-82
2021/07/27 02:51:48;;;;;;;4.93;3.95;;;;;;;17.93;100.00;100839.69;6258761;28;20055;-82
2021/07/27 02:54:50;;;;;;;8.20;4.88;;;;;;;17.88;100.00;100838.41;6257798;28;20207;-82
2021/07/27 02:57:52;;;;;;;7.03;4.60;;;;;;;17.87;100.00;100842.03;6257394;28;20045;-81
2021/07/27 03:00:54;;;;;;;9.23;5.03;;;;;;;17.85;100.00;100838.66;6258204;28;20053;-82
2021/07/27 03:03:55;;;;;;;6.57;4.75;;;;;;;17.84;100.00;100847.59;6258576;28;20053;-81
2021/07/27 03:06:56;;;;;;;8.32;4.72;;;;;;;17.79;100.00;100847.97;6256939;28;20124;-82
2021/07/27 03:13:14;;;;;;;10.82;5.03;;;;;;;17.78;100.00;100837.47;6257053;28;20061;-81
2021/07/27 03:16:17;;;;;;;14.00;4.90;;;;;;;17.75;100.00;100839.41;6256554;28;20516;-81
2021/07/27 03:19:18;;;;;;;9.88;5.30;;;;;;;17.76;100.00;100840.28;6257995;28;20056;-81
2021/07/27 03:22:20;;;;;;;13.38;6.43;;;;;;;17.71;100.00;100847.72;6257240;28;20492;-81
2021/07/27 03:25:22;;;;;;;9.70;5.65;;;;;;;17.70;100.00;100846.03;6256417;28;20045;-81
2021/07/27 03:28:25;;;;;;;9.90;4.75;;;;;;;17.67;100.00;100852.47;6236133;28;20461;-82
2021/07/27 03:31:28;;;;;;;8.65;5.28;;;;;;;17.67;100.00;100849.81;6232434;28;20054;-82
2021/07/27 03:34:30;;;;;;;9.68;5.45;;;;;;;17.63;100.00;100856.34;6231653;28;20046;-81
2021/07/27 03:37:33;;;;;;;8.23;5.28;;;;;;;17.59;100.00;100854.06;6237667;28;20049;-81
2021/07/27 03:40:35;;;;;;;9.05;5.95;;;;;;;17.53;100.00;100855.38;6242676;28;20133;-81
2021/07/27 03:43:39;;;;;;;13.48;5.78;;;;;;;17.48;100.00;100854.91;6257740;28;20056;-80
2021/07/27 03:46:52;;;;;;;11.98;6.00;;;;;;;17.41;100.00;100857.22;6239473;28;20046;-81
2021/07/27 03:49:54;;;;;;;8.95;6.25;;;;;;;17.37;100.00;100862.91;6244811;28;20497;-81
2021/07/27 03:52:56;;;;;;;8.75;6.05;;;;;;;17.33;100.00;100862.28;6242041;28;20041;-81
2021/07/27 03:55:57;;;;;;;8.88;5.63;;;;;;;17.34;100.00;100863.13;6250306;28;20053;-81
2021/07/27 03:59:00;;;;;;;8.50;6.47;;;;;;;17.31;100.00;100864.25;6240773;28;20429;-81
2021/07/27 04:02:02;;;;;;;8.55;6.40;;;;;;;17.29;100.00;100867.97;6234148;28;20056;-81
2021/07/27 04:05:05;;;;;;;10.63;5.75;;;;;;;17.28;100.00;100866.28;6256871;28;20049;-81
2021/07/27 04:08:06;;;;;;;16.33;7.00;;;;;;;17.24;100.00;100873.66;6256220;28;20069;-81
2021/07/27 04:11:08;;;;;;;10.85;5.80;;;;;;;17.27;100.00;100867.28;6256638;28;20064;-81
2021/07/27 04:14:10;;;;;;;10.10;6.47;;;;;;;17.27;100.00;100864.63;6252409;28;20061;-81
2021/07/27 04:17:13;;;;;;;12.48;7.05;;;;;;;17.32;100.00;100870.41;6255291;28;20176;-80
2021/07/27 04:20:15;;;;;;;11.40;7.00;;;;;;;17.36;100.00;100870.03;6254863;28;20060;-81
2021/07/27 04:23:17;;;;;;;11.05;6.95;;;;;;;17.37;100.00;100868.22;6256765;28;20049;-80
2021/07/27 04:26:19;;;;;;;16.08;7.32;;;;;;;17.38;100.00;100872.56;6254940;28;20413;-81
2021/07/27 04:29:21;;;;;;;12.43;6.57;;;;;;;17.43;100.00;100863.25;6246056;28;20059;-81
2021/07/27 04:32:23;;;;;;;11.30;7.15;;;;;;;17.50;100.00;100861.78;6232619;28;20050;-82
2021/07/27 04:35:24;;;;;;;12.50;7.10;;;;;;;17.48;100.00;100861.06;6231262;28;20045;-81
2021/07/27 04:38:25;;;;;;;11.20;7.65;;;;;;;17.50;100.00;100861.78;6231860;28;20054;-81
2021/07/27 04:41:27;;;;;;;13.15;7.57;;;;;;;17.55;100.00;100861.41;6233419;28;20053;-81
2021/07/27 04:44:30;;;;;;;11.80;7.53;;;;;;;17.63;100.00;100864.31;6233409;28;20053;-81
2021/07/27 04:47:31;;;;;;;10.88;7.25;;;;;;;17.66;100.00;100863.19;6230978;28;20053;-82
2021/07/27 04:50:32;;;;;;;11.60;8.18;;;;;;;17.72;100.00;100862.72;6230508;28;20494;-82
2021/07/27 04:53:36;;;;;;;9.02;6.82;;;;;;;17.76;100.00;100866.84;6231103;28;20053;-82
2021/07/27 04:56:37;;;;;;;17.30;7.80;;;;;;;17.81;100.00;100863.81;6230089;28;20057;-81
2021/07/27 04:59:40;;;;;;;15.63;7.72;;;;;;;17.82;100.00;100863.69;6228671;28;20054;-81
2021/07/27 05:02:41;;;;;;;12.38;8.18;;;;;;;17.83;100.00;100865.38;6229633;28;20391;-82
2021/07/27 05:05:42;;;;;;;17.60;10.60;;;;;;;17.87;100.00;100863.31;6229741;28;20049;-81
2021/07/27 05:08:44;;;;;;;15.85;8.48;;;;;;;17.88;100.00;100862.31;6230374;28;20054;-81
2021/07/27 05:11:45;;;;;;;11.70;7.68;;;;;;;17.91;100.00;100865.59;6229379;28;20497;-82
2021/07/27 05:14:48;;;;;;;12.30;7.72;;;;;;;17.93;100.00;100866.28;6228154;28;20053;-82
2021/07/27 05:17:49;;;;;;;14.27;9.05;;;;;;;18.00;100.00;100866.66;6229591;28;20064;-82
2021/07/27 05:20:51;;;;;;;19.65;9.35;;;;;;;18.09;100.00;100862.38;6228695;28;20050;-81
2021/07/27 05:23:52;;;;;;;17.30;9.68;;;;;;;18.17;100.00;100860.78;6229051;28;20068;-82
2021/07/27 05:26:53;;;;;;;20.60;10.60;;;;;;;18.25;100.00;100868.09;6228279;28;20057;-82
2021/07/27 05:29:56;;;;;;;16.70;10.77;;;;;;;18.32;100.00;100860.47;6227837;28;20520;-81
2021/07/27 05:33:01;;;;;;;15.85;9.85;;;;;;;18.38;100.00;100852.78;6227310;28;20058;-81
2021/07/27 05:36:02;;;;;;;18.83;12.15;;;;;;;18.38;100.00;100846.63;6227084;28;20101;-81
2021/07/27 05:39:04;;;;;;;25.52;12.88;;;;;;;18.41;100.00;100851.69;6228261;28;20423;-81
2021/07/27 05:42:05;;;;;;;18.20;11.63;;;;;;;18.47;100.00;100856.50;6238025;28;20045;-80
2021/07/27 05:45:09;;;;;;;22.27;13.43;;;;;;;18.43;100.00;100858.56;6239997;28;20049;-81
2021/07/27 05:48:10;;;;;;;22.88;13.18;;;;;;;18.43;100.00;100855.91;6250847;28;20053;-82
2021/07/27 05:51:13;;;;;;;25.75;14.77;;;;;;;18.46;100.00;100863.63;6251697;28;20049;-81
2021/07/27 05:54:15;;;;;;;20.10;13.32;;;;;;;18.49;100.00;100862.53;6251078;28;20200;-81
2021/07/27 05:57:17;;;;;;;31.13;16.00;;;;;;;18.47;100.00;100872.47;6250366;28;20045;-81
2021/07/27 06:00:21;;;;;;;23.10;14.50;;;;;;;18.49;100.00;100866.06;6250869;28;20057;-81
2021/07/27 06:03:22;;;;;;;26.23;16.33;;;;;;;18.51;100.00;100871.22;6251166;28;20045;-81
2021/07/27 06:06:23;;;;;;;23.67;16.27;;;;;;;18.54;100.00;100868.31;6249678;28;20048;-81
2021/07/27 06:09:25;;;;;;;29.30;18.05;;;;;;;18.53;100.00;100871.97;6250332;28;20060;-81
2021/07/27 06:12:26;;;;;;;25.13;16.52;;;;;;;18.52;100.00;100868.44;6253366;28;20052;-80
2021/07/27 06:15:29;;;;;;;31.55;18.95;;;;;;;18.54;100.00;100876.31;6254202;28;20489;-81
2021/07/27 06:18:30;;;;;;;31.95;19.30;;;;;;;18.52;100.00;100868.44;6254855;28;20050;-81
2021/07/27 06:21:32;;;;;;;29.85;19.52;;;;;;;18.55;100.00;100870.00;6254966;28;20791;-81
2021/07/27 06:24:33;;;;;;;34.50;22.13;;;;;;;18.51;100.00;100871.22;6254642;28;20057;-81
2021/07/27 06:27:35;;;;;;;33.72;21.83;;;;;;;18.41;100.00;100873.84;6254829;28;20057;-81
2021/07/27 06:30:37;;;;;;;35.65;21.23;;;;;;;18.40;100.00;100880.13;6253960;28;20046;-82
2021/07/27 06:33:39;;;;;;;32.83;21.38;;;;;;;18.40;100.00;100866.81;6253298;28;20508;-81
2021/07/27 06:36:40;;;;;;;37.00;21.63;;;;;;;18.43;100.00;100881.66;6254458;28;20550;-81
2021/07/27 06:39:42;;;;;;;38.00;24.48;;;;;;;18.48;100.00;100872.31;6253024;28;20133;-81
2021/07/27 06:42:43;;;;;;;37.45;24.35;;;;;;;18.50;100.00;100878.38;6252415;28;20496;-82
2021/07/27 06:45:52;;;;;;;37.28;23.20;;;;;;;18.59;100.00;100887.41;6253577;28;20054;-82
2021/07/27 06:48:53;;;;;;;35.53;23.60;;;;;;;18.66;98.74;100885.03;6255474;28;20049;-82
2021/07/27 06:51:55;;;;;;;33.85;22.77;;;;;;;18.65;98.37;100884.22;6255387;28;20060;-82
2021/07/27 06:54:56;;;;;;;33.70;21.77;;;;;;;18.69;98.60;100880.34;6254090;28;20114;-82
2021/07/27 06:57:57;;;;;;;28.73;20.10;;;;;;;18.71;98.50;100880.22;6253068;28;20424;-82
2021/07/27 07:01:03;;;;;;;32.72;19.83;;;;;;;18.86;97.90;100886.91;6253048;28;20069;-83
2021/07/27 07:04:05;;;;;;;27.15;18.50;;;;;;;18.98;98.58;100887.66;6255260;28;20056;-81
2021/07/27 07:07:07;;;;;;;29.95;20.00;;;;;;;19.00;98.10;100888.38;6253187;28;20409;-82
2021/07/27 07:10:10;;;;;;;31.65;20.15;;;;;;;18.92;97.72;100891.69;6253691;28;20061;-81
2021/07/27 07:13:12;;;;;;;34.67;21.00;;;;;;;18.86;98.70;100892.22;6254144;28;20485;-81
2021/07/27 07:16:15;;;;;;;31.05;20.58;;;;;;;18.85;98.58;100892.34;6252936;28;20053;-82
2021/07/27 07:19:18;;;;;;;32.50;21.85;;;;;;;18.91;100.00;100894.50;6254326;28;20056;-82
2021/07/27 07:22:20;;;;;;;29.98;21.02;;;;;;;19.00;98.21;100897.19;6251018;28;20050;-82
2021/07/27 07:25:21;;;;;;;28.15;19.85;;;;;;;19.15;99.38;100897.69;6253496;28;20050;-82
2021/07/27 07:28:23;;;;;;;27.58;19.33;;;;;;;19.25;99.10;100903.88;6254610;28;20128;-82
2021/07/27 07:31:25;;;;;;;33.75;20.05;;;;;;;19.34;98.12;100904.06;6253227;28;20053;-82
2021/07/27 07:34:27;;;;;;;29.38;20.30;;;;;;;19.40;94.37;100904.38;6252036;28;20046;-82
2021/07/27 07:37:28;;;;;;;31.17;19.20;;;;;;;19.42;94.96;100906.91;6251400;28;20046;-84
2021/07/27 07:40:29;;;;;;;30.27;19.38;;;;;;;19.40;93.92;100901.72;6251097;28;20049;-84
2021/07/27 07:43:31;;;;;;;26.00;18.17;;;;;;;19.50;94.55;100899.94;6232490;28;20057;-84
2021/07/27 07:46:33;;;;;;;33.88;21.45;;;;;;;19.71;92.51;100901.69;6226483;28;20056;-84
2021/07/27 07:49:35;;;;;;;32.75;22.13;;;;;;;19.68;93.36;100897.47;6226594;28;20049;-83
2021/07/27 07:52:36;;;;;;;27.85;18.02;;;;;;;19.63;93.15;100905.06;6226903;28;20050;-85
2021/07/27 07:55:37;;;;;;;30.02;20.88;;;;;;;19.54;92.08;100915.66;6226316;28;20050;-86
2021/07/27 07:58:39;;;;;;;29.60;20.77;;;;;;;19.50;93.07;100920.41;6226102;28;20049;-82
2021/07/27 08:01:44;;;;;;;31.48;22.73;;;;;;;19.48;92.96;100917.88;6228196;28;20054;-82
2021/07/27 08:04:45;;;;;;;31.20;23.48;;;;;;;19.52;92.50;100923.78;6229006;28;20053;-83
2021/07/27 08:07:47;;;;;;;31.42;22.75;;;;;;;19.59;93.49;100918.75;6228665;28;20060;-81
2021/07/27 08:10:48;;;;;;;36.63;21.20;;;;;;;19.51;95.16;100938.09;6229899;28;20054;-86
2021/07/27 08:13:52;;;;;;;30.42;22.23;;;;;;;19.38;95.15;100929.47;6229168;28;20057;-82
2021/07/27 08:16:55;;;;;;;33.67;23.15;;;;;;;19.37;95.30;100927.78;6228595;28;20049;-82
2021/07/27 08:19:57;;;;;;;38.33;24.20;;;;;;;19.38;94.74;100932.16;6227046;28;20046;-82
2021/07/27 08:22:59;;;;;;;31.90;24.10;;;;;;;19.44;94.86;100928.94;6228462;28;20395;-81
2021/07/27 08:26:00;;;;;;;33.72;24.10;;;;;;;19.45;95.67;100939.47;6230353;28;20525;-81
2021/07/27 08:29:01;;;;;;;33.08;23.77;;;;;;;19.45;94.27;100936.81;6228895;28;20057;-84
2021/07/27 08:32:08;;;;;;;34.17;23.90;;;;;;;19.43;94.38;100935.25;6229498;28;20049;-82
2021/07/27 08:35:09;;;;;;;33.15;23.92;;;;;;;19.33;95.69;100934.38;6227847;28;20425;-83
2021/07/27 08:38:11;;;;;;;32.38;22.73;;;;;;;19.41;95.47;100940.72;6228069;28;20046;-84
2021/07/27 08:41:14;;;;;;;30.30;21.33;;;;;;;19.54;95.49;100939.66;6228134;28;20053;-83
2021/07/27 08:44:18;;;;;;;34.20;22.30;;;;;;;19.63;94.92;100936.22;6228290;28;20061;-82
2021/07/27 08:47:21;;;;;;;31.42;20.73;;;;;;;19.79;93.63;100938.34;6227775;28;20136;-83
2021/07/27 08:50:23;;;;;;;27.33;21.02;;;;;;;19.79;93.52;100941.84;6228432;28;20054;-83
2021/07/27 08:53:24;;;;;;;29.95;21.23;;;;;;;19.80;91.20;100945.34;6226602;28;20045;-83
2021/07/27 08:56:25;;;;;;;26.92;19.85;;;;;;;19.77;91.86;100939.31;6227414;28;20512;-83
2021/07/27 08:59:27;;;;;;;24.65;18.88;;;;;;;19.84;91.19;100944.09;6228404;28;20052;-83
2021/07/27 09:02:30;;;;;;;29.77;18.95;;;;;;;19.84;90.17;100947.63;6241385;28;20058;-84
2021/07/27 09:05:31;;;;;;;24.75;19.00;;;;;;;19.85;88.64;100948.44;6237229;28;20056;-82
2021/07/27 09:08:33;;;;;;;29.90;18.77;;;;;;;19.84;90.29;100957.44;6251715;28;20048;-82
2021/07/27 09:11:44;;;;;;;23.23;18.33;;;;;;;19.99;90.04;100948.94;6251217;28;20042;-83
2021/07/27 09:14:47;;;;;;;25.77;18.10;;;;;;;20.14;88.02;100951.19;6252338;28;20136;-83
2021/07/27 09:17:53;;;;;;;24.15;16.88;;;;;;;20.15;88.11;100948.38;6235396;28;20041;-83
2021/07/27 09:20:55;;;;;;;22.55;16.80;;;;;;;20.19;85.57;100949.78;6245022;28;20132;-82
2021/07/27 09:23:56;;;;;;;25.33;14.35;;;;;;;20.32;85.76;100949.53;6251049;28;20045;-82
2021/07/27 09:26:59;;;;;;;18.52;12.65;;;;;;;20.46;85.18;100956.25;6251193;28;20416;-82
2021/07/27 09:30:00;;;;;;;21.05;13.07;;;;;;;20.50;85.99;100952.38;6251794;28;20045;-82
2021/07/27 09:33:03;;;;;;;17.55;12.30;;;;;;;20.52;84.96;100945.03;6252158;28;20070;-82
2021/07/27 09:36:07;;;;;;;18.33;12.40;;;;;;;20.60;84.07;100945.19;6251897;28;20049;-82
2021/07/27 09:39:08;;;;;;;18.08;13.18;;;;;;;20.62;82.31;100950.38;6249972;28;20139;-83
2021/07/27 09:42:11;;;;;;;23.33;12.25;;;;;;;20.72;81.95;100951.22;6249168;28;20394;-83
2021/07/27 09:45:12;;;;;;;22.75;14.38;;;;;;;20.75;81.13;100946.41;6252828;28;20054;-82
2021/07/27 09:48:16;;;;;;;16.95;12.45;;;;;;;20.70;81.94;100948.69;6254994;28;20045;-84
2021/07/27 09:51:18;;;;;;;18.58;12.82;;;;;;;20.72;82.87;100941.38;6254884;28;20503;-83
2021/07/27 09:54:20;;;;;;;20.90;13.32;;;;;;;20.77;82.07;100943.63;6255061;28;20041;-83
2021/07/27 09:57:22;;;;;;;20.20;13.85;;;;;;;20.77;82.06;100952.47;6254602;28;20052;-83
2021/07/27 10:00:25;;;;;;;22.88;14.00;;;;;;;20.77;80.60;100941.78;6253212;28;20053;-84
2021/07/27 10:03:34;;;;;;;19.83;13.32;;;;;;;20.91;79.43;100948.53;6253293;28;20132;-84
2021/07/27 10:06:37;;;;;;;19.67;12.88;;;;;;;21.10;81.43;100952.13;6280072;22;20377;-84
2021/07/27 10:09:39;;;;;;;20.85;14.25;;;;;;;21.24;77.71;100940.97;6301151;28;20050;-83
2021/07/27 10:12:40;;;;;;;19.63;13.60;;;;;;;21.30;76.79;100945.72;6294971;28;20060;-80
2021/07/27 10:15:45;;;;;;;19.65;13.80;;;;;;;21.19;78.71;100936.06;6299123;28;20068;-83
2021/07/27 10:18:49;;;;;;;19.73;13.52;;;;;;;21.16;77.04;100920.31;6298332;28;20041;-83
2021/07/27 10:22:03;;;;;;;20.45;13.43;;;;;;;21.24;76.23;100930.28;6285722;28;20097;-83
2021/07/27 10:25:12;;;;;;;22.80;12.57;;;;;;;21.43;72.38;100932.06;6281840;28;20049;-82
2021/07/27 10:28:21;;;;;;;16.45;11.75;;;;;;;21.50;71.39;100927.81;6297393;28;20048;-81
2021/07/27 10:31:33;;;;;;;18.65;12.55;;;;;;;21.61;71.41;100921.41;6291810;28;20052;-83
2021/07/27 10:34:36;;;;;;;20.67;12.35;;;;;;;21.73;70.22;100926.41;6274819;28;20099;-81
2021/07/27 10:37:37;;;;;;;18.95;12.70;;;;;;;21.83;69.19;100914.81;6267053;28;20057;-83
2021/07/27 10:40:39;;;;;;;23.00;14.88;;;;;;;21.81;69.14;100917.66;6268126;28;20046;-81
2021/07/27 10:43:41;;;;;;;20.23;12.77;;;;;;;21.73;72.01;100926.41;6267495;28;20060;-82
2021/07/27 10:46:44;;;;;;;17.60;13.18;;;;;;;21.68;71.42;100918.00;6266885;28;20072;-81
2021/07/27 10:49:47;;;;;;;18.90;13.00;;;;;;;21.71;72.75;100912.34;6267171;28;20052;-80
2021/07/27 10:52:50;;;;;;;18.50;12.80;;;;;;;21.93;75.30;100915.59;6267122;28;20053;-80
2021/07/27 10:55:52;;;;;;;19.80;14.00;;;;;;;22.02;69.72;100904.81;6265977;28;20050;-84
2021/07/27 10:58:53;;;;;;;21.55;14.40;;;;;;;22.13;67.28;100909.13;6263021;28;20404;-81
2021/07/27 11:01:55;;;;;;;18.52;14.10;;;;;;;22.17;70.05;100910.53;6267012;28;20045;-83
2021/07/27 11:04:58;;;;;;;17.90;13.77;;;;;;;22.22;69.65;100904.72;6270023;28;20064;-83
2021/07/27 11:07:59;;;;;;;19.23;12.43;;;;;;;22.35;67.15;100902.47;6274391;28;20049;-79
2021/07/27 11:11:05;;;;;;;20.17;14.60;;;;;;;22.41;66.37;100909.06;6274948;28;20049;-81
2021/07/27 11:14:06;;;;;;;20.10;13.90;;;;;;;22.33;66.63;100904.44;6267539;28;20049;-79
2021/07/27 11:17:08;;;;;;;21.27;12.48;;;;;;;22.55;67.89;100903.13;6237149;28;20061;-73
2021/07/27 11:20:13;;;;;;;20.55;13.73;;;;;;;22.94;68.98;100897.41;6237125;28;20056;-79
2021/07/27 11:23:16;;;;;;;17.42;12.60;;;;;;;23.20;64.80;100905.41;6243546;28;20042;-78
2021/07/27 11:26:19;;;;;;;18.17;12.45;;;;;;;23.02;65.38;100894.75;6256059;28;20050;-83
2021/07/27 11:29:21;;;;;;;17.50;11.43;;;;;;;23.02;66.78;100908.16;6248499;28;20045;-81
2021/07/27 11:32:25;;;;;;;17.05;12.35;;;;;;;22.98;63.85;100904.13;6236896;28;20046;-78
2021/07/27 11:35:30;;;;;;;19.50;12.45;;;;;;;22.95;64.59;100902.59;6247592;28;20049;-80
2021/07/27 11:38:32;;;;;;;15.57;12.52;;;;;;;23.47;64.37;100899.00;6249415;28;20046;-81
2021/07/27 11:41:34;;;;;;;16.08;11.82;;;;;;;23.85;61.09;100896.81;6249181;28;20046;-81
2021/07/27 11:44:35;;;;;;;19.65;11.63;;;;;;;24.23;59.00;100901.53;6248108;28;20030;-80
2021/07/27 11:47:43;;;;;;;14.90;9.85;;;;;;;24.57;60.32;100899.72;6247583;28;20053;-81
2021/07/27 11:50:57;;;;;;;16.08;11.50;;;;;;;24.37;57.38;100908.13;6239965;28;20077;-79
2021/07/27 11:53:58;;;;;;;15.93;11.05;;;;;;;24.52;58.20;100897.53;6246388;28;20050;-81
2021/07/27 11:57:00;;;;;;;19.27;10.30;;;;;;;24.89;58.87;100909.59;6246597;28;20049;-81
2021/07/27 12:00:06;;;;;;;14.57;11.25;;;;;;;24.67;59.01;100903.94;6279181;28;20043;-80
2021/07/27 12:03:08;;;;;;;15.98;12.23;;;;;;;24.61;58.05;100896.53;6238842;28;20054;-81
2021/07/27 12:06:12;;;;;;;16.25;10.63;;;;;;;24.24;61.29;100880.91;6247801;28;20067;-81
2021/07/27 12:09:13;;;;;;;15.48;10.75;;;;;;;24.14;61.82;100904.41;6254836;28;20042;-81
2021/07/27 12:12:15;;;;;;;13.25;10.88;;;;;;;24.93;59.96;100886.72;6276759;28;20045;-81
2021/07/27 12:15:17;;;;;;;11.40;9.45;;;;;;;25.51;60.71;100886.38;6278702;28;20057;-81
2021/07/27 12:18:18;;;;;;;13.02;10.20;;;;;;;25.92;52.89;100886.16;6285809;28;20123;-81
2021/07/27 12:21:21;;;;;;;14.88;9.88;;;;;;;26.14;56.05;100879.13;6283549;28;20034;-83
2021/07/27 12:24:22;;;;;;;13.00;8.65;;;;;;;25.94;54.88;100870.69;6299633;28;20049;-83
2021/07/27 12:27:24;;;;;;;15.57;10.00;;;;;;;25.18;54.43;100871.41;6297585;28;20064;-82
2021/07/27 12:30:26;;;;;;;14.98;9.18;;;;;;;25.42;56.86;100868.59;6264170;28;20057;-83
2021/07/27 12:33:29;;;;;;;18.35;10.35;;;;;;;25.34;54.85;100871.31;6259940;28;20497;-84
2021/07/27 12:36:33;;;;;;;12.80;9.60;;;;;;;24.73;55.04;100857.53;6262657;28;20063;-85
2021/07/27 12:39:35;;;;;;;17.88;10.45;;;;;;;24.56;55.74;100858.56;6248902;28;20053;-82
2021/07/27 12:42:36;;;;;;;13.55;8.93;;;;;;;24.50;59.40;100856.59;6263304;28;20057;-83
2021/07/27 12:45:43;;;;;;;13.20;8.57;;;;;;;24.26;58.73;100846.66;6263325;28;20045;-83
2021/07/27 12:48:45;;;;;;;12.52;8.20;;;;;;;24.21;60.29;100846.31;6259096;28;20038;-83
2021/07/27 12:51:48;;;;;;;13.98;8.70;;;;;;;24.70;58.24;100833.69;6265634;28;20064;-85
2021/07/27 12:54:49;;;;;;;12.15;8.52;;;;;;;25.03;57.39;100831.75;6265367;28;20057;-83
2021/07/27 12:57:51;;;;;;;15.20;9.50;;;;;;;25.18;56.11;100831.06;6269126;28;20053;-82
2021/07/27 13:00:52;;;;;;;13.82;8.57;;;;;;;25.30;55.37;100829.66;6263026;28;20057;-83
2021/07/27 13:03:53;;;;;;;11.20;8.50;;;;;;;24.79;56.19;100826.44;6261070;28;20041;-82
2021/07/27 13:06:58;;;;;;;13.77;8.65;;;;;;;25.05;58.97;100826.19;6263399;28;20547;-83
2021/07/27 13:10:00;;;;;;;10.23;7.68;;;;;;;25.14;55.32;100825.19;6262023;28;20041;-83
2021/07/27 13:13:01;;;;;;;11.18;7.40;;;;;;;24.80;56.30;100818.22;6269818;28;20049;-85
2021/07/27 13:16:03;;;;;;;12.02;7.43;;;;;;;24.57;58.37;100817.25;6271977;28;20060;-86
2021/07/27 13:19:04;;;;;;;9.70;7.13;;;;;;;24.63;59.99;100813.91;6272823;28;20049;-86
2021/07/27 13:22:07;;;;;;;15.07;7.63;;;;;;;24.62;60.84;100814.06;6271446;28;20053;-87
2021/07/27 13:25:09;;;;;;;12.05;7.00;;;;;;;24.60;57.42;100810.72;6272296;28;20045;-86
2021/07/27 13:28:11;;;;;;;10.57;7.78;;;;;;;24.66;58.90;100813.53;6272229;28;20049;-80
2021/07/27 13:31:12;;;;;;;11.02;7.18;;;;;;;24.67;55.82;100807.19;6260771;28;20493;-85
2021/07/27 13:34:16;;;;;;;9.82;6.57;;;;;;;24.69;59.21;100807.81;6265501;28;20049;-86
2021/07/27 13:37:19;;;;;;;12.35;7.43;;;;;;;24.85;55.59;100804.25;6263845;28;20049;-83
2021/07/27 13:40:20;;;;;;;11.80;7.38;;;;;;;25.33;55.99;100796.16;6261536;28;20050;-84
2021/07/27 13:43:22;;;;;;;12.18;6.38;;;;;;;25.86;56.56;100800.72;6272899;28;20061;-85
2021/07/27 13:46:24;;;;;;;11.80;7.10;;;;;;;26.43;55.30;100802.06;6270940;28;20060;-86
2021/07/27 13:49:26;;;;;;;12.15;6.80;;;;;;;26.66;51.95;100797.50;6271066;28;20464;-85
2021/07/27 13:52:29;;;;;;;11.70;6.75;;;;;;;26.91;49.80;100794.50;6270415;28;20045;-85
2021/07/27 13:55:31;;;;;;;9.95;6.32;;;;;;;27.10;49.79;100793.09;6271069;28;20053;-86
2021/07/27 13:58:33;;;;;;;9.40;6.22;;;;;;;27.15;47.51;100786.09;6270018;28;20045;-84
2021/07/27 14:01:37;;;;;;;12.55;8.30;;;;;;;27.04;48.00;100781.19;6271575;28;20046;-86
2021/07/27 14:04:39;;;;;;;8.88;6.35;;;;;;;27.07;47.64;100775.41;6269690;28;20042;-85
2021/07/27 14:07:41;;;;;;;8.10;5.93;;;;;;;27.32;47.62;100770.53;6270132;28;20045;-83
2021/07/27 14:10:43;;;;;;;12.05;6.80;;;;;;;27.01;46.28;100771.59;6268157;28;20137;-83
2021/07/27 14:13:44;;;;;;;9.68;6.35;;;;;;;26.46;47.65;100770.22;6266690;28;20523;-86
2021/07/27 14:16:46;;;;;;;8.20;6.07;;;;;;;26.64;47.64;100772.56;6269484;28;20049;-84